Time;durP1;ratioP1;P1;durP2;ratioP2;P2;SDS_P1;SDS_P2;PMS_P1;PMS_P2;Temp;Humidity;BMP_temperature;BMP_pressure;BME280_temperature;BME280_humidity;BME280_pressure;Samples;Min_cycle;Max_cycle;Signal;HPM_P1;HPM_P2
2022/08/10 00:01:52;;;;;;;6.68;3.50;;;;;;;22.41;80.42;99879.47;5107612;28;20202;-80
2022/08/10 00:04:23;;;;;;;6.03;3.33;;;;;;;22.31;80.58;99878.72;5129154;27;20216;-80
2022/08/10 00:06:52;;;;;;;6.05;3.42;;;;;;;21.91;83.81;99870.06;5162667;27;20193;-80
2022/08/10 00:09:24;;;;;;;4.88;3.10;;;;;;;22.06;84.26;99872.22;5167227;27;20182;-80
2022/08/10 00:11:52;;;;;;;6.07;3.30;;;;;;;21.91;85.53;99875.47;5169935;27;20197;-80
2022/08/10 00:14:21;;;;;;;5.47;3.22;;;;;;;21.75;86.44;99893.31;5171438;27;20212;-80
2022/08/10 00:16:51;;;;;;;6.35;3.75;;;;;;;21.68;88.03;99882.25;5166968;27;20268;-80
2022/08/10 00:19:20;;;;;;;5.38;3.00;;;;;;;21.67;87.60;99883.28;5175522;27;20271;-79
2022/08/10 00:21:49;;;;;;;6.93;3.45;;;;;;;21.58;88.98;99882.31;5165249;27;20217;-80
2022/08/10 00:24:19;;;;;;;6.03;3.47;;;;;;;21.59;88.08;99878.63;5133483;27;20635;-80
2022/08/10 00:26:50;;;;;;;6.63;3.85;;;;;;;21.53;89.03;99879.25;5171386;27;20217;-80
2022/08/10 00:29:38;;;;;;;7.15;3.50;;;;;;;21.25;91.58;99881.06;5175580;27;20409;-79
2022/08/10 00:32:07;;;;;;;4.35;3.33;;;;;;;21.11;93.25;99876.97;5168863;27;20193;-80
2022/08/10 00:34:36;;;;;;;6.65;3.78;;;;;;;21.30;91.89;99877.94;5169471;27;20224;-80
2022/08/10 00:37:04;;;;;;;4.72;3.72;;;;;;;21.10;93.24;99877.97;5168633;27;20330;-79
2022/08/10 00:39:33;;;;;;;6.07;3.60;;;;;;;20.89;94.86;99877.34;5170745;27;20193;-79
2022/08/10 00:42:09;;;;;;;5.55;3.50;;;;;;;20.92;95.65;99868.13;5170374;27;20200;-80
2022/08/10 00:44:38;;;;;;;4.80;3.60;;;;;;;21.09;94.29;99867.38;5170414;27;20675;-79
2022/08/10 00:47:08;;;;;;;4.07;3.53;;;;;;;20.97;94.34;99863.16;5168187;27;20272;-79
2022/08/10 00:49:57;;;;;;;6.68;3.75;;;;;;;21.18;93.40;99871.00;5175230;27;20192;-79
2022/08/10 00:52:27;;;;;;;6.50;3.25;;;;;;;21.27;92.68;99854.84;5167995;27;20201;-79
2022/08/10 00:54:56;;;;;;;6.55;3.50;;;;;;;21.24;92.30;99868.59;5175141;27;20289;-79
2022/08/10 00:57:27;;;;;;;7.57;3.73;;;;;;;21.13;93.09;99872.31;5172295;27;20193;-80
2022/08/10 00:59:56;;;;;;;5.82;3.55;;;;;;;21.07;93.31;99863.97;5135445;27;20272;-80
2022/08/10 01:02:29;;;;;;;5.67;3.63;;;;;;;20.97;93.45;99869.41;5167570;27;20199;-80
2022/08/10 01:04:59;;;;;;;6.93;4.00;;;;;;;20.83;94.31;99870.69;5169539;27;20200;-79
2022/08/10 01:07:56;;;;;;;8.10;4.27;;;;;;;20.83;94.08;99861.78;5168906;27;20189;-77
2022/08/10 01:10:41;;;;;;;9.23;4.40;;;;;;;20.81;94.60;99861.94;5169219;27;20256;-78
2022/08/10 01:13:21;;;;;;;10.23;4.43;;;;;;;20.60;95.80;99861.28;5170613;27;20193;-78
2022/08/10 01:15:59;;;;;;;8.95;4.38;;;;;;;20.48;96.95;99859.75;5162980;27;20217;-80
2022/08/10 01:18:40;;;;;;;9.17;3.90;;;;;;;20.58;96.39;99858.72;5169525;27;20185;-77
2022/08/10 01:21:33;;;;;;;9.80;4.03;;;;;;;20.54;96.09;99849.22;5170770;27;20211;-77
2022/08/10 01:24:24;;;;;;;5.63;3.47;;;;;;;20.51;96.40;99854.06;5064445;27;20212;-78
2022/08/10 01:27:15;;;;;;;7.17;3.67;;;;;;;20.42;96.28;99850.38;5056520;28;20212;-78
2022/08/10 01:30:05;;;;;;;5.10;3.30;;;;;;;20.45;96.79;99854.63;5058159;27;20207;-78
2022/08/10 01:32:46;;;;;;;4.03;2.70;;;;;;;20.52;95.32;99855.75;5052672;28;20197;-78
2022/08/10 01:35:22;;;;;;;4.83;3.40;;;;;;;20.40;96.40;99855.03;5062520;27;20221;-80
2022/08/10 01:37:58;;;;;;;4.93;3.37;;;;;;;20.40;96.58;99851.50;5051054;28;20220;-78
2022/08/10 01:40:32;;;;;;;7.93;3.30;;;;;;;20.36;96.86;99860.84;5060023;27;20196;-78
2022/08/10 01:43:04;;;;;;;5.70;3.63;;;;;;;20.27;97.70;99855.34;5059821;27;20200;-77
2022/08/10 01:45:39;;;;;;;5.27;3.47;;;;;;;20.34;97.92;99849.38;5053452;27;20242;-77
2022/08/10 01:48:30;;;;;;;7.03;3.80;;;;;;;20.41;96.48;99850.50;5060600;27;20197;-77
2022/08/10 01:51:04;;;;;;;5.43;3.53;;;;;;;20.09;98.65;99859.75;5062002;27;20232;-77
2022/08/10 01:53:39;;;;;;;9.17;3.43;;;;;;;20.06;98.58;99861.84;5060783;28;20200;-77
2022/08/10 01:56:11;;;;;;;4.57;3.40;;;;;;;20.25;97.79;99860.00;5061578;27;20296;-80
2022/08/10 01:58:40;;;;;;;5.17;3.10;;;;;;;20.19;97.98;99860.59;5065047;27;20208;-78
2022/08/10 02:01:15;;;;;;;5.80;2.97;;;;;;;20.19;97.52;99860.59;5113400;28;20202;-80
2022/08/10 02:03:48;;;;;;;6.63;3.57;;;;;;;20.16;97.40;99862.69;5113512;28;20202;-80
2022/08/10 02:06:37;;;;;;;4.43;3.10;;;;;;;19.91;98.02;99864.97;5106961;28;20702;-78
2022/08/10 02:09:08;;;;;;;5.13;3.37;;;;;;;19.96;99.35;99862.69;5107347;28;20194;-80
2022/08/10 02:11:37;;;;;;;9.57;3.37;;;;;;;19.76;100.00;99866.34;5107469;28;20270;-79
2022/08/10 02:14:29;;;;;;;6.90;3.30;;;;;;;19.71;100.00;99871.31;5113469;28;20191;-80
2022/08/10 02:17:06;;;;;;;6.60;3.27;;;;;;;19.76;100.00;99870.88;5108084;28;20312;-79
2022/08/10 02:19:38;;;;;;;7.07;3.40;;;;;;;19.75;100.00;99867.34;5108078;28;20205;-80
2022/08/10 02:22:09;;;;;;;5.63;3.67;;;;;;;19.86;100.00;99867.22;5114080;27;20218;-80
2022/08/10 02:25:00;;;;;;;4.53;3.20;;;;;;;20.07;100.00;99871.63;5123499;27;20194;-80
2022/08/10 02:27:29;;;;;;;5.40;3.33;;;;;;;20.08;99.93;99873.34;5047496;28;20201;-80
2022/08/10 02:29:59;;;;;;;4.60;3.50;;;;;;;20.02;99.67;99875.59;5048760;28;20197;-80
2022/08/10 02:32:30;;;;;;;3.33;3.03;;;;;;;20.04;99.65;99871.91;5048529;28;20272;-80
2022/08/10 02:35:10;;;;;;;6.43;3.07;;;;;;;20.00;100.00;99874.03;5051469;28;20195;-77
2022/08/10 02:37:51;;;;;;;4.10;3.40;;;;;;;20.16;99.57;99873.47;5050321;28;20201;-80
2022/08/10 02:40:19;;;;;;;4.80;3.37;;;;;;;20.10;99.72;99877.59;5057955;27;20209;-80
2022/08/10 02:43:20;;;;;;;6.30;3.13;;;;;;;20.20;98.96;99882.97;5051800;28;20198;-79
2022/08/10 02:46:13;;;;;;;4.00;3.20;;;;;;;20.29;97.93;99880.28;5051236;28;20242;-80
2022/08/10 02:48:55;;;;;;;4.10;3.40;;;;;;;20.23;97.86;99878.13;5049263;28;20222;-80
2022/08/10 02:51:32;;;;;;;4.13;3.23;;;;;;;20.15;98.03;99869.91;5045146;28;20195;-79
2022/08/10 02:54:24;;;;;;;4.27;3.50;;;;;;;20.12;98.27;99872.91;5051253;28;20197;-79
2022/08/10 02:56:57;;;;;;;4.13;3.20;;;;;;;20.15;98.58;99879.84;5049949;28;20217;-79
2022/08/10 02:59:32;;;;;;;6.73;3.13;;;;;;;20.10;98.40;99874.91;5053460;28;20666;-79
2022/08/10 03:02:10;;;;;;;4.57;3.07;;;;;;;20.02;99.25;99874.75;5050736;28;20185;-80
2022/08/10 03:04:46;;;;;;;4.67;3.27;;;;;;;19.92;99.23;99869.34;5050926;28;20245;-80
2022/08/10 03:07:29;;;;;;;4.10;3.13;;;;;;;20.16;97.97;99870.78;5049666;28;20280;-79
2022/08/10 03:10:15;;;;;;;6.20;3.00;;;;;;;20.27;96.99;99862.56;5050955;28;20189;-80
2022/08/10 03:12:49;;;;;;;5.13;3.30;;;;;;;20.28;96.60;99872.34;5054392;27;20197;-80
2022/08/10 03:15:20;;;;;;;5.03;3.23;;;;;;;20.30;96.34;99873.03;5009109;28;20224;-79
2022/08/10 03:17:52;;;;;;;3.90;3.00;;;;;;;20.30;96.09;99865.81;5006439;28;20207;-80
2022/08/10 03:20:31;;;;;;;6.37;3.07;;;;;;;20.26;96.31;99869.78;5007997;28;20222;-80
2022/08/10 03:23:09;;;;;;;4.50;3.30;;;;;;;20.24;96.27;99865.53;5077765;28;20215;-80
2022/08/10 03:25:39;;;;;;;5.57;2.90;;;;;;;20.27;96.30;99862.56;5109343;28;20183;-80
2022/08/10 03:28:22;;;;;;;3.93;2.80;;;;;;;20.20;96.94;99856.91;5111429;28;20372;-78
2022/08/10 03:30:52;;;;;;;5.40;3.17;;;;;;;20.27;97.11;99865.28;5103148;28;20210;-80
2022/08/10 03:33:22;;;;;;;5.30;3.40;;;;;;;20.16;97.84;99860.84;5094004;28;20280;-79
2022/08/10 03:35:52;;;;;;;4.23;3.33;;;;;;;20.10;98.04;99860.59;5075048;27;20224;-79
2022/08/10 03:38:42;;;;;;;5.33;3.50;;;;;;;20.07;97.98;99863.53;5070707;27;20192;-80
2022/08/10 03:41:13;;;;;;;3.63;3.10;;;;;;;19.83;100.00;99856.75;5067417;27;20196;-80
2022/08/10 03:43:48;;;;;;;4.50;3.30;;;;;;;19.60;100.00;99864.22;5077022;27;20204;-80
2022/08/10 03:46:22;;;;;;;7.40;3.43;;;;;;;19.56;100.00;99859.25;5070373;28;20202;-77
2022/08/10 03:48:54;;;;;;;4.17;3.20;;;;;;;19.70;100.00;99870.47;5081648;27;20208;-79
2022/08/10 03:51:26;;;;;;;6.90;3.17;;;;;;;19.66;100.00;99863.66;5075566;27;20192;-80
2022/08/10 03:53:54;;;;;;;4.97;3.10;;;;;;;19.79;100.00;99858.03;5076237;27;20263;-77
2022/08/10 03:56:38;;;;;;;3.77;3.27;;;;;;;19.45;100.00;99858.34;5073545;27;20220;-77
2022/08/10 03:59:09;;;;;;;3.80;3.10;;;;;;;19.52;100.00;99869.41;5079044;27;20223;-79
2022/08/10 04:01:37;;;;;;;5.53;3.43;;;;;;;19.43;100.00;99868.38;5076578;27;20252;-79
2022/08/10 04:04:26;;;;;;;4.47;3.03;;;;;;;19.42;100.00;99871.22;5069996;28;20204;-79
2022/08/10 04:07:00;;;;;;;3.07;2.77;;;;;;;19.27;100.00;99865.38;5069054;27;20196;-79
2022/08/10 04:09:30;;;;;;;5.83;2.93;;;;;;;19.31;100.00;99866.81;5078883;27;20200;-79
2022/08/10 04:12:19;;;;;;;4.33;3.03;;;;;;;19.15;100.00;99869.13;5069643;28;20203;-80
2022/08/10 04:14:47;;;;;;;5.77;3.40;;;;;;;18.92;100.00;99865.81;5074454;27;20272;-79
2022/08/10 04:17:22;;;;;;;8.30;3.60;;;;;;;18.87;100.00;99878.75;5078015;27;20223;-79
2022/08/10 04:20:19;;;;;;;6.03;3.10;;;;;;;18.87;100.00;99876.06;5070085;28;20204;-79
2022/08/10 04:22:52;;;;;;;4.73;3.50;;;;;;;18.77;100.00;99880.53;5133046;27;20235;-79
2022/08/10 04:25:23;;;;;;;5.03;3.77;;;;;;;18.82;100.00;99872.97;5168379;27;20288;-79
2022/08/10 04:27:54;;;;;;;9.10;3.60;;;;;;;18.82;100.00;99884.53;5160440;27;20272;-79
2022/08/10 04:30:23;;;;;;;7.40;3.87;;;;;;;18.68;100.00;99873.28;5171115;27;20189;-79
2022/08/10 04:32:56;;;;;;;3.87;3.23;;;;;;;18.43;100.00;99882.53;5169172;27;20193;-79
2022/08/10 04:35:27;;;;;;;5.13;3.40;;;;;;;18.70;100.00;99885.59;5168058;27;20208;-80
2022/08/10 04:37:59;;;;;;;7.93;3.37;;;;;;;18.78;100.00;99888.47;5132506;27;20223;-79
2022/08/10 04:40:27;;;;;;;3.67;3.13;;;;;;;18.91;100.00;99882.88;5119782;27;20189;-79
2022/08/10 04:43:04;;;;;;;7.87;3.40;;;;;;;18.97;100.00;99881.50;5172601;27;20247;-79
2022/08/10 04:45:41;;;;;;;4.90;3.27;;;;;;;18.72;100.00;99885.44;5169240;27;20272;-80
2022/08/10 04:48:21;;;;;;;4.23;3.00;;;;;;;19.07;100.00;99883.25;5168083;27;20192;-79
2022/08/10 04:51:10;;;;;;;4.57;3.20;;;;;;;19.12;100.00;99880.16;5173731;27;20238;-79
2022/08/10 04:53:48;;;;;;;6.53;3.40;;;;;;;19.13;100.00;99884.56;5173474;27;20189;-79
2022/08/10 04:56:35;;;;;;;5.50;3.13;;;;;;;19.34;100.00;99879.09;5179228;27;20640;-79
2022/08/10 04:59:05;;;;;;;4.67;2.90;;;;;;;19.34;100.00;99874.59;5172098;27;20704;-77
2022/08/10 05:01:34;;;;;;;3.47;3.10;;;;;;;19.55;100.00;99884.41;5170942;27;20189;-79
2022/08/10 05:04:22;;;;;;;7.60;3.17;;;;;;;19.49;100.00;99874.19;5135484;27;20255;-80
2022/08/10 05:07:07;;;;;;;4.17;3.40;;;;;;;19.54;100.00;99871.94;5133700;27;20190;-79
2022/08/10 05:09:37;;;;;;;4.63;3.00;;;;;;;19.52;100.00;99869.41;5132353;27;20221;-80
2022/08/10 05:12:26;;;;;;;6.40;3.33;;;;;;;19.52;100.00;99873.94;5135412;27;20198;-80
2022/08/10 05:14:54;;;;;;;4.77;3.00;;;;;;;19.49;100.00;99879.56;5125262;27;20676;-80
2022/08/10 05:17:24;;;;;;;5.60;3.57;;;;;;;19.53;100.00;99883.69;5132478;27;20213;-80
2022/08/10 05:19:53;;;;;;;6.03;3.50;;;;;;;19.57;100.00;99880.59;5126629;27;20198;-81
2022/08/10 05:22:32;;;;;;;4.87;2.67;;;;;;;19.60;100.00;99883.03;5159919;27;20328;-81
2022/08/10 05:25:02;;;;;;;12.43;3.30;;;;;;;19.54;100.00;99886.25;5173435;27;20201;-80
2022/08/10 05:27:32;;;;;;;5.60;3.30;;;;;;;19.63;100.00;99892.66;5175541;27;20215;-80
2022/08/10 05:30:01;;;;;;;9.30;3.40;;;;;;;19.75;100.00;99891.53;5171859;27;20272;-79
2022/08/10 05:32:31;;;;;;;6.80;3.20;;;;;;;19.79;100.00;99886.75;5165956;27;20209;-80
2022/08/10 05:35:20;;;;;;;9.80;3.40;;;;;;;20.04;100.00;99880.81;5178791;27;20196;-79
2022/08/10 05:37:51;;;;;;;5.23;2.93;;;;;;;20.10;100.00;99890.19;5177140;27;20208;-79
2022/08/10 05:40:42;;;;;;;3.77;2.90;;;;;;;20.11;100.00;99887.34;5178723;27;20278;-77
2022/08/10 05:43:16;;;;;;;6.53;3.20;;;;;;;20.10;100.00;99891.03;5173187;27;20196;-79
2022/08/10 05:45:45;;;;;;;5.27;3.10;;;;;;;20.08;100.00;99892.16;5166778;27;20197;-79
2022/08/10 05:48:36;;;;;;;4.50;3.10;;;;;;;20.22;100.00;99889.91;5178514;27;20204;-79
2022/08/10 05:51:26;;;;;;;6.17;3.07;;;;;;;20.43;100.00;99897.00;5177260;27;20193;-80
2022/08/10 05:53:55;;;;;;;5.77;3.03;;;;;;;20.46;100.00;99894.00;5175266;27;20193;-80
2022/08/10 05:56:35;;;;;;;8.87;3.77;;;;;;;20.53;100.00;99895.13;5173447;27;20201;-80
2022/08/10 05:59:26;;;;;;;3.57;2.97;;;;;;;20.64;100.00;99892.28;5178233;27;20193;-79
2022/08/10 06:02:22;;;;;;;4.27;3.00;;;;;;;20.51;100.00;99897.13;5178094;27;20204;-80
2022/08/10 06:05:10;;;;;;;5.63;3.20;;;;;;;20.90;100.00;99897.91;5177442;27;20189;-79
2022/08/10 06:07:42;;;;;;;6.83;3.17;;;;;;;20.76;99.92;99890.31;5173615;27;20211;-79
2022/08/10 06:10:15;;;;;;;6.37;2.60;;;;;;;20.90;98.93;99888.97;5172444;27;20224;-79
2022/08/10 06:16:04;;;;;;;8.10;3.30;;;;;;;20.78;99.43;99910.69;5174688;27;20654;-80
2022/08/10 06:18:33;;;;;;;4.57;3.00;;;;;;;20.80;99.21;99905.16;5170800;27;20209;-79
2022/08/10 06:21:02;;;;;;;5.43;3.00;;;;;;;21.03;99.77;99902.97;5173376;27;20185;-77
2022/08/10 06:23:31;;;;;;;5.33;3.13;;;;;;;21.17;98.34;99909.75;5177581;27;20228;-79
2022/08/10 06:26:00;;;;;;;5.03;2.80;;;;;;;21.03;98.33;99902.97;5174493;27;20185;-80
2022/08/10 06:28:45;;;;;;;5.40;3.00;;;;;;;21.24;96.73;99913.56;5176303;27;20237;-78
2022/08/10 06:31:32;;;;;;;4.77;3.20;;;;;;;21.43;94.00;99908.09;5177610;27;20185;-79
2022/08/10 06:34:20;;;;;;;6.03;3.10;;;;;;;21.69;89.85;99906.38;5172424;27;20203;-80
2022/08/10 06:36:49;;;;;;;5.05;2.97;;;;;;;21.80;90.55;99907.16;5105337;28;20199;-78
2022/08/10 06:39:18;;;;;;;6.38;3.28;;;;;;;21.86;87.49;99902.03;5106653;28;20300;-80
2022/08/10 06:42:08;;;;;;;5.50;3.10;;;;;;;;;;5108943;28;20200;-77
2022/08/10 06:45:10;;;;;;;5.13;3.13;;;;;;;22.05;86.53;99905.59;5112937;28;20199;-79
2022/08/10 06:47:43;;;;;;;6.85;3.20;;;;;;;22.08;83.55;99900.75;5108932;28;20195;-77
2022/08/10 06:50:17;;;;;;;4.33;3.27;;;;;;;22.25;80.58;99901.78;5108788;28;20198;-79
2022/08/10 06:53:12;;;;;;;4.75;3.05;;;;;;;22.39;79.71;99905.75;5112748;28;20218;-79
2022/08/10 06:55:43;;;;;;;4.47;2.97;;;;;;;22.48;79.23;99899.44;5157923;27;20220;-79
2022/08/10 06:58:29;;;;;;;3.75;3.00;;;;;;;22.76;78.10;99905.56;5174955;27;20257;-80
2022/08/10 07:01:01;;;;;;;4.97;2.85;;;;;;;22.77;75.79;99897.28;5172901;27;20275;-79
2022/08/10 07:03:36;;;;;;;5.55;2.90;;;;;;;23.09;73.64;99899.41;5173342;27;20257;-80
2022/08/10 07:06:08;;;;;;;3.53;3.15;;;;;;;23.13;72.75;99905.31;5173068;27;20204;-80
2022/08/10 07:08:38;;;;;;;3.78;2.97;;;;;;;23.21;72.52;99899.13;5169018;27;20639;-80
2022/08/10 07:11:08;;;;;;;4.35;2.92;;;;;;;23.30;70.10;99900.84;5166814;27;20191;-80
2022/08/10 07:13:40;;;;;;;4.65;3.10;;;;;;;23.41;70.96;99903.28;5169461;27;20227;-79
2022/08/10 07:16:31;;;;;;;4.93;2.60;;;;;;;23.49;70.73;99899.75;5176137;27;20200;-80
2022/08/10 07:19:02;;;;;;;4.00;2.70;;;;;;;23.52;69.67;99904.84;5168991;27;20300;-80
2022/08/10 07:21:31;;;;;;;3.53;2.80;;;;;;;23.80;68.06;99902.75;5169699;27;20189;-80
2022/08/10 07:24:03;;;;;;;4.30;2.70;;;;;;;23.88;66.55;99898.22;5162600;27;20196;-79
2022/08/10 07:26:33;;;;;;;4.47;2.92;;;;;;;24.01;65.85;99902.31;5170961;27;20542;-79
2022/08/10 07:29:04;;;;;;;4.53;2.83;;;;;;;23.95;66.13;99903.84;5165676;27;20193;-79
2022/08/10 07:31:36;;;;;;;4.88;3.10;;;;;;;24.02;63.89;99910.25;5173812;27;20281;-80
2022/08/10 07:34:27;;;;;;;4.15;2.83;;;;;;;24.10;64.07;99906.72;5172971;27;20238;-80
2022/08/10 07:37:01;;;;;;;6.65;2.92;;;;;;;24.42;63.63;99909.50;5165867;27;20201;-80
2022/08/10 07:39:31;;;;;;;5.25;2.92;;;;;;;24.18;63.02;99904.88;5176143;27;20299;-80
2022/08/10 07:42:24;;;;;;;6.78;2.85;;;;;;;24.32;62.65;99907.97;5176364;27;20245;-80
2022/08/10 07:44:53;;;;;;;6.65;2.90;;;;;;;24.41;62.76;99910.50;5170263;27;20193;-79
2022/08/10 07:47:30;;;;;;;4.18;2.90;;;;;;;24.80;61.13;99916.09;5169278;27;20207;-80
2022/08/10 07:50:21;;;;;;;6.25;2.90;;;;;;;24.67;60.41;99918.47;5132265;27;20206;-80
2022/08/10 07:52:53;;;;;;;4.68;2.53;;;;;;;24.74;60.02;99915.94;5127364;27;20198;-80
2022/08/10 07:55:22;;;;;;;6.53;2.90;;;;;;;25.06;59.12;99913.19;5086994;28;20207;-80
2022/08/10 07:58:11;;;;;;;4.20;2.60;;;;;;;25.21;57.62;99910.63;5091119;28;20208;-80
2022/08/10 08:00:41;;;;;;;5.30;2.90;;;;;;;25.08;58.22;99908.44;5085190;28;20325;-80
2022/08/10 08:03:13;;;;;;;6.28;2.78;;;;;;;25.15;57.59;99905.03;5087350;28;20211;-79
2022/08/10 08:05:43;;;;;;;4.28;2.50;;;;;;;25.37;56.82;99915.13;5080552;28;20203;-80
2022/08/10 08:08:31;;;;;;;4.68;2.70;;;;;;;25.61;55.99;99908.78;5117005;27;20286;-79
2022/08/10 08:11:00;;;;;;;4.15;2.83;;;;;;;25.60;55.78;99912.53;5126771;27;20198;-80
2022/08/10 08:13:30;;;;;;;6.60;3.05;;;;;;;25.74;55.82;99909.09;5128011;27;20299;-80
2022/08/10 08:16:03;;;;;;;4.32;2.60;;;;;;;25.74;54.83;99906.38;5123434;27;20269;-80
2022/08/10 08:18:52;;;;;;;3.55;2.10;;;;;;;25.87;53.66;99895.78;5129089;27;20214;-80
2022/08/10 08:21:42;;;;;;;5.90;2.60;;;;;;;26.03;52.37;99910.28;5130570;27;20244;-80
2022/08/10 08:24:33;;;;;;;4.05;2.58;;;;;;;26.01;52.42;99904.19;5132326;28;20678;-80
2022/08/10 08:27:03;;;;;;;6.35;2.90;;;;;;;26.09;52.32;99902.25;5163162;27;20238;-79
2022/08/10 08:29:34;;;;;;;7.25;3.10;;;;;;;25.87;52.83;99906.66;5178355;27;20203;-80
2022/08/10 08:32:04;;;;;;;3.95;2.60;;;;;;;26.36;50.11;99900.03;5182620;27;20213;-79
2022/08/10 08:34:37;;;;;;;3.72;2.35;;;;;;;26.60;48.58;99901.72;5179197;27;20199;-80
2022/08/10 08:37:09;;;;;;;5.43;2.90;;;;;;;26.34;49.63;99905.63;5172607;27;20193;-80
2022/08/10 08:39:41;;;;;;;6.97;3.10;;;;;;;26.30;50.37;99898.88;5177767;27;20213;-80
2022/08/10 08:42:35;;;;;;;3.40;2.50;;;;;;;26.63;49.85;99898.63;5176323;27;20196;-79
2022/08/10 08:45:18;;;;;;;6.40;2.80;;;;;;;26.94;49.09;99896.66;5138546;27;20274;-80
2022/08/10 08:48:08;;;;;;;4.70;2.72;;;;;;;27.12;47.66;99893.63;5136229;27;20193;-80
2022/08/10 08:50:52;;;;;;;7.07;2.63;;;;;;;26.97;48.03;99890.00;5133288;27;20688;-80
2022/08/10 08:53:43;;;;;;;3.20;2.95;;;;;;;27.30;47.22;99885.91;5132956;27;20186;-80
2022/08/10 08:56:39;;;;;;;8.35;4.40;;;;;;;27.55;43.60;99889.16;5138300;27;20186;-80
2022/08/10 08:59:30;;;;;;;10.57;6.25;;;;;;;27.82;40.21;99889.53;5133393;27;20211;-80
2022/08/10 09:02:18;;;;;;;8.70;6.47;;;;;;;27.73;40.91;99886.06;5094425;28;20271;-80
2022/08/10 09:05:17;;;;;;;9.25;7.60;;;;;;;27.80;41.01;99883.44;5091216;28;20749;-80
2022/08/10 09:08:11;;;;;;;4.82;2.30;;;;;;;28.16;39.56;99884.25;5096142;28;20279;-79
2022/08/10 09:10:50;;;;;;;5.22;2.40;;;;;;;28.12;41.25;99882.94;5089804;28;20201;-79
2022/08/10 09:13:28;;;;;;;4.57;2.28;;;;;;;28.39;38.65;99875.06;5094496;28;20199;-80
2022/08/10 09:16:08;;;;;;;4.00;2.60;;;;;;;28.13;38.19;99881.91;5095429;28;20225;-79
2022/08/10 09:18:48;;;;;;;4.93;2.67;;;;;;;28.02;38.64;99876.13;5093561;28;20195;-80
2022/08/10 09:21:23;;;;;;;3.70;2.40;;;;;;;28.60;37.68;99869.59;5084831;28;20199;-79
2022/08/10 09:24:01;;;;;;;5.13;2.40;;;;;;;28.86;36.92;99862.66;5110032;28;20258;-80
2022/08/10 09:26:43;;;;;;;6.20;2.45;;;;;;;28.42;37.21;99870.06;5109972;28;20202;-79
2022/08/10 09:29:15;;;;;;;3.22;2.17;;;;;;;28.69;37.12;99865.69;5117183;28;20187;-80
2022/08/10 09:31:51;;;;;;;4.28;2.58;;;;;;;28.81;37.12;99863.25;5110044;28;20686;-79
2022/08/10 09:34:55;;;;;;;4.55;2.65;;;;;;;28.74;36.79;99854.16;5181860;27;20208;-80
2022/08/10 09:37:47;;;;;;;2.80;2.60;;;;;;;28.92;36.91;99857.25;5180894;27;20189;-80
2022/08/10 09:40:42;;;;;;;3.45;2.40;;;;;;;29.01;36.87;99855.22;5174494;27;20295;-79
2022/08/10 09:43:39;;;;;;;3.90;1.95;;;;;;;29.32;36.32;99847.41;5179067;27;20204;-80
2022/08/10 09:46:18;;;;;;;2.75;2.33;;;;;;;28.95;35.85;99854.16;5170030;27;20663;-80
2022/08/10 09:48:58;;;;;;;3.47;2.10;;;;;;;29.41;35.75;99858.16;5173708;27;20205;-80
2022/08/10 09:51:36;;;;;;;5.13;2.67;;;;;;;29.70;34.74;99852.41;5172971;27;20451;-80
2022/08/10 09:54:47;;;;;;;3.88;2.30;;;;;;;29.80;33.99;99843.84;5176555;27;20263;-80
2022/08/10 09:57:35;;;;;;;6.65;2.47;;;;;;;29.75;33.52;99843.63;5173514;27;20197;-80
2022/08/10 10:00:27;;;;;;;2.25;2.05;;;;;;;29.97;33.20;99839.69;5178348;27;20247;-80
2022/08/10 10:03:08;;;;;;;5.03;2.28;;;;;;;29.75;33.48;99838.16;5177895;27;20221;-80
2022/08/10 10:05:48;;;;;;;2.72;2.28;;;;;;;29.82;33.49;99836.28;5171091;27;20200;-80
2022/08/10 10:08:28;;;;;;;3.08;2.00;;;;;;;29.72;33.38;99835.81;5172031;27;20201;-80
2022/08/10 10:11:08;;;;;;;7.15;2.47;;;;;;;29.72;33.48;99835.81;5131946;27;20224;-80
2022/08/10 10:13:54;;;;;;;3.53;2.22;;;;;;;30.44;31.93;99832.41;5128486;27;20198;-80
2022/08/10 10:16:46;;;;;;;2.40;2.20;;;;;;;29.83;32.83;99832.53;5132793;27;20190;-80
2022/08/10 10:19:34;;;;;;;4.95;2.20;;;;;;;30.28;31.59;99825.44;5129494;27;20223;-80
2022/08/10 10:22:24;;;;;;;3.33;2.05;;;;;;;30.32;32.10;99823.16;5122698;27;20283;-80
2022/08/10 10:25:02;;;;;;;4.10;2.08;;;;;;;30.72;31.56;99821.25;5127557;27;20322;-80
2022/08/10 10:27:58;;;;;;;4.38;2.58;;;;;;;30.67;31.29;99815.56;5131139;27;20213;-80
2022/08/10 10:30:35;;;;;;;3.38;2.00;;;;;;;30.84;30.73;99813.25;5132465;27;20190;-80
2022/08/10 10:33:12;;;;;;;2.22;1.95;;;;;;;31.19;30.22;99811.88;5130114;27;20305;-80
2022/08/10 10:35:48;;;;;;;3.25;1.90;;;;;;;31.20;30.54;99820.94;5155296;27;20221;-81
2022/08/10 10:38:18;;;;;;;3.00;1.95;;;;;;;30.94;30.38;99816.38;5109175;28;20206;-81
2022/08/10 10:40:53;;;;;;;2.42;1.67;;;;;;;30.86;30.68;99808.38;5110363;28;20302;-80
2022/08/10 10:43:40;;;;;;;5.70;4.50;;;;;;;31.40;30.20;99809.94;5107826;28;20206;-80
2022/08/10 10:46:22;;;;;;;3.88;2.03;;;;;;;31.65;29.90;99805.38;5107574;28;20199;-81
2022/08/10 10:49:03;;;;;;;2.65;1.80;;;;;;;31.33;29.63;99805.31;5108441;28;20195;-80
2022/08/10 10:51:34;;;;;;;4.13;2.00;;;;;;;31.08;30.37;99796.13;5107570;28;20306;-80
2022/08/10 10:54:11;;;;;;;2.88;1.90;;;;;;;31.20;30.71;99807.25;5104694;28;20202;-80
2022/08/10 10:56:55;;;;;;;2.20;1.98;;;;;;;31.52;29.72;99798.06;5144640;27;20203;-80
2022/08/10 10:59:34;;;;;;;3.78;1.90;;;;;;;31.77;29.62;99805.56;5167641;27;20192;-80
2022/08/10 11:02:38;;;;;;;2.22;2.00;;;;;;;31.70;29.94;99807.47;5177162;27;20797;-80
2022/08/10 11:05:19;;;;;;;3.00;2.25;;;;;;;31.36;30.19;99797.72;5166771;27;20195;-80
2022/08/10 11:07:55;;;;;;;2.63;2.00;;;;;;;30.72;31.23;99789.28;5169684;27;20660;-80
2022/08/10 11:10:30;;;;;;;3.17;2.00;;;;;;;31.14;30.73;99787.03;5166554;27;20233;-80
2022/08/10 11:13:23;;;;;;;4.18;2.25;;;;;;;31.88;30.12;99789.25;5171228;27;20197;-80
2022/08/10 11:16:18;;;;;;;2.38;2.17;;;;;;;32.44;28.56;99776.59;5176709;27;20197;-80
2022/08/10 11:19:14;;;;;;;3.05;2.30;;;;;;;32.72;28.58;99787.09;5176682;27;20272;-80
2022/08/10 11:21:55;;;;;;;5.05;2.40;;;;;;;32.46;28.97;99785.44;5172209;27;20213;-80
2022/08/10 11:24:33;;;;;;;3.65;2.10;;;;;;;32.39;29.03;99777.28;5060358;27;20258;-80
2022/08/10 11:27:23;;;;;;;2.97;2.08;;;;;;;32.97;28.14;99779.66;5061113;27;20668;-80
2022/08/10 11:30:02;;;;;;;2.33;2.10;;;;;;;32.63;28.01;99764.59;5055548;28;20192;-80
2022/08/10 11:32:38;;;;;;;5.55;2.20;;;;;;;32.93;27.78;99763.88;5050631;28;20277;-81
2022/08/10 11:35:18;;;;;;;3.72;2.20;;;;;;;32.44;27.97;99765.63;5059231;27;20274;-80
2022/08/10 11:37:58;;;;;;;5.05;2.22;;;;;;;32.42;28.71;99770.47;5052951;27;20229;-80
2022/08/10 11:41:01;;;;;;;3.05;2.00;;;;;;;32.48;28.59;99755.88;5050472;27;20252;-81
2022/08/10 11:44:09;;;;;;;2.38;2.17;;;;;;;32.70;27.88;99754.38;5050676;28;20211;-80
2022/08/10 11:46:44;;;;;;;3.30;2.30;;;;;;;32.82;27.45;99751.72;5054076;27;20204;-81
2022/08/10 11:49:18;;;;;;;3.45;2.08;;;;;;;32.86;27.26;99754.88;5061388;27;20201;-80
2022/08/10 11:51:52;;;;;;;3.50;2.15;;;;;;;32.91;26.86;99757.75;5057585;27;20220;-80
2022/08/10 11:54:30;;;;;;;2.28;1.92;;;;;;;33.31;26.58;99745.22;5056876;27;20276;-81
2022/08/10 11:57:00;;;;;;;2.20;1.70;;;;;;;34.02;25.36;99745.50;5057228;27;20207;-79
2022/08/10 12:02:31;;;;;;;3.47;1.90;;;;;;;33.55;26.05;99742.59;5061636;27;20266;-80
2022/08/10 12:05:07;;;;;;;2.78;1.88;;;;;;;33.72;25.91;99740.88;5060196;27;20687;-80
2022/08/10 12:07:41;;;;;;;2.75;2.00;;;;;;;33.71;25.54;99746.59;5051885;28;20188;-80
2022/08/10 12:10:31;;;;;;;3.45;2.13;;;;;;;33.50;26.47;99736.97;5050539;27;20197;-80
2022/08/10 12:13:11;;;;;;;2.70;2.05;;;;;;;33.00;27.81;99731.69;5056022;28;20256;-80
2022/08/10 12:15:46;;;;;;;3.60;2.20;;;;;;;33.19;26.92;99727.84;5057163;27;20238;-81
2022/08/10 12:18:29;;;;;;;3.38;2.10;;;;;;;33.47;26.30;99729.19;5054663;28;20199;-81
2022/08/10 12:21:02;;;;;;;2.50;2.30;;;;;;;34.16;25.38;99735.94;5100283;28;20714;-81
2022/08/10 12:23:42;;;;;;;4.53;2.20;;;;;;;33.94;25.96;99719.19;5147039;27;20260;-81
2022/08/10 12:26:15;;;;;;;2.60;2.08;;;;;;;34.27;25.05;99728.78;5167556;27;20195;-81
2022/08/10 12:28:49;;;;;;;2.53;1.85;;;;;;;34.40;24.83;99726.66;5164305;27;20262;-81
2022/08/10 12:31:24;;;;;;;2.22;1.80;;;;;;;34.05;25.01;99721.09;5169747;27;20196;-80